Site contains unofficial IBTrACS data. Visit the IBTrACS Website to access archived data.

1961 Tropical Cyclone NOT_NAMED (1961052S13095)


IBTrACS version v04r00. Visit IBTrACS website for data access.
Please direct all questions to the IBTrACS Q and A forum

Storm track - Intensity - Wind Radii - Intensity Data - Source Data - All data

Summary Information

Storm ID 1961052S13095
Start Feb 20 16Z
Max Intensity 45 kt (Feb 27 18Z), 990 mb (Feb 27 19Z)
End Mar 1 22Z
ATCF IDs ,SH201961
Track status Best track data.

Storm track plot

Map of storm track

Intensity plots

Map of storm track

Radial wind information

No radial wind information for this storm


Position and Intensity Table

BASIN ISO_TIME_________ NATURE LAT LON WMO PRES USA WIND BOM PRES DS824 WIND DS824 PRES TD9636 WIND
degrees north degrees east mb kts mb kts mb kts
SI 1961-02-20 16:00:00 NR -13.00 95.00 15
SI 18:00:00 TS -13.00 95.00 15 15
SI 21:00:00 TS -12.99 94.99 15 15
SI 1961-02-21 00:00:00 TS -13.00 95.00 15 15
SI 01:00:00 TS -13.02 95.02 998 15 998 15
SI 03:00:00 TS -13.07 95.08 15 998 15
SI 04:00:00 TS -13.11 95.11 998 15 998 15
SI 06:00:00 TS -13.20 95.16 15 998 35 998 15
SI 07:00:00 TS -13.25 95.20 998 15 998 35 998 16
SI 09:00:00 TS -13.35 95.32 17 998 35 998 17
SI 10:00:00 TS -13.40 95.39 998 18 998 35 998 17
SI 12:00:00 TS -13.50 95.50 20 998 35 998 18
SI 15:00:00 TS -13.66 95.66 20 998 35 998 19
SI 16:00:00 TS -13.70 95.70 998 20 998 35 998 20
SI 18:00:00 TS -13.79 95.79 20 998 35 998 19
SI 19:00:00 TS -13.83 95.83 998 19 998 35 998 18
SI 21:00:00 TS -13.90 95.90 17 998 35 998 17
SI 22:00:00 TS -13.93 95.93 998 16 998 35 998 17
SI 1961-02-22 00:00:00 TS -13.98 95.98 15 998 35 998 16
SI 01:00:00 TS -14.00 96.00 998 15 998 35 998 16
SI 03:00:00 TS -14.01 96.01 15 998 35 998 15
SI 04:00:00 TS -14.01 96.01 998 15 998 35 998 15
SI 06:00:00 TS -14.00 96.00 15 998 35 998 15
SI 07:00:00 TS -14.00 96.00 998 15 998 35 998 15
SI 09:00:00 TS -14.00 96.00 15 998 35 998 15
SI 10:00:00 TS -14.00 96.00 998 15 998 35 998 15
SI 12:00:00 TS -14.00 96.00 15 998 35 998 15
SI 15:00:00 TS -14.00 96.00 15 998 35 998 15
SI 16:00:00 TS -14.00 96.00 998 15 998 35 998 15
SI 18:00:00 TS -14.00 96.00 15 998 35 998 14
SI 19:00:00 TS -14.00 96.00 998 14 998 35 998 13
SI 21:00:00 TS -14.00 96.00 12 998 35 998 12
SI 22:00:00 TS -14.00 96.00 998 11 998 35 998 12
SI 1961-02-23 00:00:00 TS -14.00 96.00 10 998 35 998 11
SI 01:00:00 TS -14.00 96.00 998 10 998 35 998 11
SI 03:00:00 TS -14.00 96.00 10 998 35 998 10
SI 04:00:00 TS -14.00 96.00 998 10 998 35 998 10
SI 06:00:00 TS -14.00 96.00 10 998 35 998 12
SI 07:00:00 TS -14.00 96.00 998 11 998 35 998 13
SI 09:00:00 TS -14.00 96.00 15 998 35 998 16
SI 10:00:00 TS -14.00 96.00 998 16 998 35 998 17
SI 12:00:00 TS -14.00 96.00 20 998 35 998 20
SI 15:00:00 TS -14.00 96.00 22 998 35 998 23
SI 16:00:00 TS -14.00 96.00 998 23 998 35 998 25
SI 18:00:00 TS -14.00 96.00 25 998 35 998 22
SI 19:00:00 TS -14.00 96.00 998 23 998 35 998 21
SI 21:00:00 TS -14.00 96.01 20 998 35 998 18
SI 22:00:00 TS -14.00 96.02 998 18 998 35 998 17
SI 1961-02-24 00:00:00 TS -14.00 96.05 15 998 35 998 14
SI 01:00:00 TS -14.00 96.08 998 14 998 35 997 13
SI 03:00:00 TS -14.00 96.16 12 997 35 997 11
SI 04:00:00 TS -13.99 96.21 997 11 997 35 997 10
SI 06:00:00 TS -13.96 96.34 10 997 35 997 10
SI 07:00:00 TS -13.95 96.40 997 10 997 35 997 11
SI 09:00:00 TS -13.92 96.55 12 997 35 997 12
SI 10:00:00 TS -13.91 96.62 997 13 997 35 997 12
SI 12:00:00 TS -13.88 96.75 15 997 35 997 13
SI 15:00:00 TS -13.83 96.95 15 997 35 997 14
SI 16:00:00 TS -13.82 97.02 997 15 997 35 997 15
SI 18:00:00 TS -13.79 97.19 15 997 35 997 14
SI 19:00:00 TS -13.78 97.28 997 14 997 35 997 13
SI 21:00:00 TS -13.74 97.43 12 997 35 997 12
SI 22:00:00 TS -13.72 97.51 997 11 997 35 997 12
SI 1961-02-25 00:00:00 TS -13.69 97.66 10 997 35 997 11
SI 01:00:00 TS -13.68 97.74 997 10 997 35 997 11
SI 03:00:00 TS -13.64 97.91 10 997 35 997 10
SI 04:00:00 TS -13.62 97.99 997 10 997 35 997 10
SI 06:00:00 TS -13.60 98.15 10 997 35 997 10
SI 07:00:00 TS -13.58 98.23 997 10 997 35 996 11
SI 09:00:00 TS -13.55 98.38 12 997 35 996 12
SI 10:00:00 TS -13.53 98.45 997 13 997 35 996 12
SI 12:00:00 TS -13.51 98.57 15 996 35 996 13
SI 15:00:00 TS -13.49 98.73 15 996 35 996 14
SI 16:00:00 TS -13.49 98.78 996 15 996 35 996 15
SI 18:00:00 TS -13.46 98.91 15 996 35 996 15
SI 19:00:00 TS -13.44 98.98 996 15 996 35 996 15
SI 21:00:00 TS -13.42 99.12 15 996 35 996 15
SI 22:00:00 TS -13.40 99.18 996 15 996 35 996 15
SI 1961-02-26 00:00:00 TS -13.36 99.32 15 996 35 996 15
SI 01:00:00 TS -13.34 99.38 996 15 996 35 996 15
SI 03:00:00 TS -13.31 99.52 15 996 35 996 15
SI 04:00:00 TS -13.30 99.58 996 15 996 35 996 15
SI 06:00:00 TS -13.26 99.71 15 996 35 996 15
SI 07:00:00 TS -13.25 99.76 996 15 996 35 995 16
SI 09:00:00 TS -13.22 99.87 17 996 36 995 17
SI 10:00:00 TS -13.21 99.91 996 18 996 36 995 17
SI 12:00:00 TS -13.20 100.00 20 995 37 995 18
SI 15:00:00 TS -13.19 100.13 20 995 38 995 19
SI 16:00:00 TS -13.19 100.18 995 20 995 39 995 20
SI 18:00:00 TS -13.16 100.31 20 995 40 995 20
SI 19:00:00 TS -13.14 100.40 995 20 995 40 995 21
SI 21:00:00 TS -13.10 100.59 22 995 40 995 22
SI 22:00:00 TS -13.08 100.69 995 23 995 40 995 22
SI 1961-02-27 00:00:00 TS -13.01 100.89 25 995 40 995 23
SI 01:00:00 TS -12.98 100.99 995 25 995 40 994 23
SI 03:00:00 TS -12.92 101.19 25 994 40 994 24
SI 04:00:00 TS -12.88 101.29 994 25 994 40 994 25
SI 06:00:00 TS -12.81 101.50 25 994 40 994 25
SI 07:00:00 TS -12.78 101.62 994 25 994 40 993 26
SI 09:00:00 TS -12.71 101.88 27 993 41 993 27
SI 10:00:00 TS -12.67 102.02 993 28 993 41 993 27
SI 12:00:00 TS -12.59 102.28 30 992 42 992 28
SI 15:00:00 TS -12.45 102.67 30 992 43 991 29
SI 16:00:00 TS -12.40 102.79 992 30 992 44 991 30
SI 18:00:00 TS -12.31 103.04 30 991 45 991 28
SI 19:00:00 TS -12.27 103.17 991 29 991 45 990 27
SI 21:00:00 TS -12.17 103.43 27 991 45 990 25
SI 22:00:00 TS -12.13 103.55 991 26 991 45 990 25
SI 1961-02-28 00:00:00 TS -12.06 103.78 25 990 45 990 23
SI 01:00:00 TS -12.04 103.89 990 24 990 45 990 22
SI 03:00:00 TS -12.01 104.05 22 990 45 991 20
SI 04:00:00 TS -12.00 104.12 991 21 991 45 991 20
SI 06:00:00 TS -12.00 104.26 20 991 45 992 21
SI 07:00:00 TS -11.99 104.32 992 21 992 22
SI 09:00:00 TS -12.00 104.41 25 992 24
SI 10:00:00 TS -12.00 104.45 993 26 993 25
SI 12:00:00 TS -12.00 104.53 30 993 26
SI 15:00:00 TS -12.01 104.65 30 994 29
SI 16:00:00 TS -12.01 104.68 995 30 995 30
SI 18:00:00 TS -12.01 104.75 30 995 29
SI 21:00:00 TS -12.01 104.84 27 996 27
SI 1961-03-01 00:00:00 TS -12.01 104.90 25 997 26
SI 01:00:00 TS -12.00 104.92 998 25 998 26
SI 03:00:00 TS -12.00 104.96 25 998 25
SI 04:00:00 TS -12.00 104.98 998 25 998 25
SI 06:00:00 TS -12.00 105.00 25 998 30 999 24
SI 07:00:00 TS -12.00 105.01 999 24 999 23
SI 09:00:00 TS -12.00 105.01 22 999 22
SI 10:00:00 TS -12.00 105.01 999 21 999 22
SI 12:00:00 TS -12.00 105.01 20 999 21
SI 15:00:00 NR -12.00 105.00 999 20
SI 16:00:00 NR -12.00 105.00 999 999 20
SI 18:00:00 NR -12.00 105.00 999
SI 21:00:00 NR -12.00 105.00 999
SI 22:00:00 NR -12.00 105.00 999 999

Source Information

Agency Information
USA bsh201961.txt
TOKYO
CMA
HKO
NEWDELHI
REUNION
BOM IDCKMSTM0S.csv:Line=3201:unnamed
NADI
WELLINGTON
DS824 aus_area.dat:301:NOT NAMED
TD9636 cons_worldwide_trop_cyclone_18710101-19891231-006:Line=5949
TD9635
NEUMANN
MLC

All available IBTrACS Data

SEASON BASIN SUBBASIN ISO_TIME_________ NATURE LAT LON WMO PRES WMO AGENCY DIST2LAND LANDFALL IFLAG USA AGENCY USA ATCF_ID USA LAT USA LON USA WIND USA SSHS BOM LAT BOM LON BOM PRES DS824 LAT DS824 LON DS824 STAGE DS824 WIND DS824 PRES TD9636 LAT TD9636 LON TD9636 STAGE TD9636 WIND STORM SPEED STORM DIR
Year degrees north degrees east mb km km degrees north degrees east kts 1 degrees north degrees east mb degrees north degrees east kts mb degrees north degrees east kts kts degrees
1961 SI WA 1961-02-20 16:00:00 NR -13.00 95.00 1288 1288 __________O___ -1 -13.00 95.00 1 15 0 0
1961 SI WA 18:00:00 TS -13.00 95.00 1288 1288 O_________P___ jtwc_sh SH201961 -13.00 95.00 15 -1 -12.99 94.99 1 15 0 0
1961 SI WA 21:00:00 TS -12.99 94.99 1288 1288 P_________P___ SH201961 -12.98 94.98 15 -1 -12.99 94.99 1 15 0 0
1961 SI WA 1961-02-21 00:00:00 TS -13.00 95.00 1288 1288 O_________P___ jtwc_sh SH201961 -13.00 95.00 15 -1 -13.01 95.01 1 15 1 128
1961 SI WA 01:00:00 TS -13.02 95.02 998 bom 1288 1288 P_____O___P___ SH201961 -13.02 95.02 15 -1 -13.00 95.00 998 -13.02 95.02 1 15 2 134
1961 SI WA 03:00:00 TS -13.07 95.08 1289 1289 P_____P___P___ SH201961 -13.08 95.08 15 -1 -13.05 95.08 998 -13.07 95.07 1 15 2 135
1961 SI WA 04:00:00 TS -13.11 95.11 998 bom 1289 1289 P_____O___O___ SH201961 -13.11 95.11 15 -1 -13.10 95.10 998 -13.10 95.10 1 15 3 149
1961 SI WA 06:00:00 TS -13.20 95.16 1290 1290 O_____P__OP___ jtwc_sh SH201961 -13.20 95.20 15 -1 -13.24 95.08 998 -13.20 95.10 TC 35 998 -13.18 95.18 1 15 3 148
1961 SI WA 07:00:00 TS -13.25 95.20 998 bom 1298 1291 P_____O__PP___ SH201961 -13.24 95.24 15 -1 -13.30 95.10 998 -13.25 95.16 TC 35 998 -13.23 95.23 1 16 4 134
1961 SI WA 09:00:00 TS -13.35 95.32 1291 1293 P_____P__PP___ SH201961 -13.34 95.34 17 -1 -13.37 95.29 998 -13.36 95.29 TC 35 998 -13.33 95.33 1 17 5 128
1961 SI WA 10:00:00 TS -13.40 95.39 998 bom 1293 1293 P_____O__PP___ SH201961 -13.39 95.39 18 -1 -13.40 95.40 998 -13.41 95.35 TC 35 998 -13.39 95.38 1 17 5 131
1961 SI WA 12:00:00 TS -13.50 95.50 1294 1294 O_____P__PP___ jtwc_sh SH201961 -13.50 95.50 20 -1 -13.50 95.54 998 -13.51 95.48 TC 35 998 -13.50 95.50 1 18 4 135
1961 SI WA 15:00:00 TS -13.66 95.66 1295 1295 P_____P__PP___ SH201961 -13.66 95.66 20 -1 -13.65 95.67 998 -13.66 95.65 TC 35 998 -13.65 95.65 1 19 4 136
1961 SI WA 16:00:00 TS -13.70 95.70 998 bom 1295 1293 P_____O__PO___ SH201961 -13.71 95.71 20 -1 -13.70 95.70 998 -13.71 95.70 TC 35 998 -13.70 95.70 1 20 4 135
1961 SI WA 18:00:00 TS -13.79 95.79 1293 1293 O_____P__OP___ jtwc_sh SH201961 -13.80 95.80 20 -1 -13.77 95.77 998 -13.80 95.80 TC 35 998 -13.77 95.78 1 19 3 136
1961 SI WA 19:00:00 TS -13.83 95.83 998 bom 1293 1291 P_____O__PP___ SH201961 -13.84 95.84 19 -1 -13.80 95.80 998 -13.84 95.85 TC 35 998 -13.81 95.81 1 18 3 135
1961 SI WA 21:00:00 TS -13.90 95.90 1291 1291 P_____P__PP___ SH201961 -13.92 95.92 17 -1 -13.87 95.87 998 -13.92 95.92 TC 35 998 -13.87 95.87 1 17 3 136
1961 SI WA 22:00:00 TS -13.93 95.93 998 bom 1291 1289 P_____O__PP___ SH201961 -13.95 95.95 16 -1 -13.90 95.90 998 -13.95 95.96 TC 35 998 -13.89 95.90 1 17 2 138
1961 SI WA 1961-02-22 00:00:00 TS -13.98 95.98 1289 1289 O_____P__OP___ jtwc_sh SH201961 -14.00 96.00 15 -1 -13.97 95.97 998 -14.00 96.00 TC 35 998 -13.94 95.94 1 16 2 134
1961 SI WA 01:00:00 TS -14.00 96.00 998 bom 1289 1289 P_____O__PP___ SH201961 -14.01 96.01 15 -1 -14.00 96.00 998 -14.01 96.01 TC 35 998 -13.96 95.96 1 16 1 0
1961 SI WA 03:00:00 TS -14.01 96.01 1289 1289 P_____P__PP___ SH201961 -14.01 96.02 15 -1 -14.01 96.01 998 -14.02 96.02 TC 35 998 -13.99 95.99 1 15 0 0
1961 SI WA 04:00:00 TS -14.01 96.01 998 bom 1289 1289 P_____O__PO___ SH201961 -14.01 96.01 15 -1 -14.00 96.00 998 -14.01 96.01 TC 35 998 -14.00 96.00 1 15 0 0
1961 SI WA 06:00:00 TS -14.00 96.00 1289 1289 O_____P__OP___ jtwc_sh SH201961 -14.00 96.00 15 -1 -14.00 96.00 998 -14.00 96.00 TC 35 998 -14.02 96.02 1 15 0 0
1961 SI WA 07:00:00 TS -14.00 96.00 998 bom 1289 1289 P_____O__PP___ SH201961 -14.00 96.00 15 -1 -14.00 96.00 998 -14.00 96.00 TC 35 998 -14.02 96.02 1 15 0 0
1961 SI WA 09:00:00 TS -14.00 96.00 1289 1289 P_____P__PP___ SH201961 -14.00 96.00 15 -1 -14.00 96.00 998 -14.00 96.00 TC 35 998 -14.02 96.02 1 15 0 0
1961 SI WA 10:00:00 TS -14.00 96.00 998 bom 1289 1289 P_____O__PP___ SH201961 -14.00 96.00 15 -1 -14.00 96.00 998 -14.00 96.00 TC 35 998 -14.02 96.02 1 15 0 0
1961 SI WA 12:00:00 TS -14.00 96.00 1289 1289 O_____P__PP___ jtwc_sh SH201961 -14.00 96.00 15 -1 -14.00 96.00 998 -14.00 96.00 TC 35 998 -14.02 96.02 1 15 0 0
1961 SI WA 15:00:00 TS -14.00 96.00 1289 1289 P_____P__PP___ SH201961 -14.00 96.00 15 -1 -14.00 96.00 998 -14.00 96.00 TC 35 998 -14.00 96.00 1 15 0 0
1961 SI WA 16:00:00 TS -14.00 96.00 998 bom 1289 1289 P_____O__PO___ SH201961 -14.00 96.00 15 -1 -14.00 96.00 998 -14.00 96.00 TC 35 998 -14.00 96.00 1 15 0 0
1961 SI WA 18:00:00 TS -14.00 96.00 1289 1289 O_____P__OP___ jtwc_sh SH201961 -14.00 96.00 15 -1 -14.00 96.00 998 -14.00 96.00 TC 35 998 -14.00 96.00 1 14 0 0
1961 SI WA 19:00:00 TS -14.00 96.00 998 bom 1289 1289 P_____O__PP___ SH201961 -14.00 96.00 14 -1 -14.00 96.00 998 -14.00 96.00 TC 35 998 -14.00 96.00 1 13 0 0
1961 SI WA 21:00:00 TS -14.00 96.00 1289 1289 P_____P__PP___ SH201961 -14.00 96.00 12 -1 -14.00 96.00 998 -14.00 96.00 TC 35 998 -14.00 96.00 1 12 0 0
1961 SI WA 22:00:00 TS -14.00 96.00 998 bom 1289 1289 P_____O__PP___ SH201961 -14.00 96.00 11 -1 -14.00 96.00 998 -14.00 96.00 TC 35 998 -14.00 96.00 1 12 0 0
1961 SI WA 1961-02-23 00:00:00 TS -14.00 96.00 1289 1289 O_____P__OP___ jtwc_sh SH201961 -14.00 96.00 10 -1 -14.00 96.00 998 -14.00 96.00 TC 35 998 -14.00 96.00 1 11 0 0
1961 SI WA 01:00:00 TS -14.00 96.00 998 bom 1289 1289 P_____O__PP___ SH201961 -14.00 96.00 10 -1 -14.00 96.00 998 -14.00 96.00 TC 35 998 -14.00 96.00 1 11 0 0
1961 SI WA 03:00:00 TS -14.00 96.00 1289 1289 P_____P__PP___ SH201961 -14.00 96.00 10 -1 -14.00 96.00 998 -14.00 96.00 TC 35 998 -14.00 96.00 1 10 0 0
1961 SI WA 04:00:00 TS -14.00 96.00 998 bom 1289 1289 P_____O__PO___ SH201961 -14.00 96.00 10 -1 -14.00 96.00 998 -14.00 96.00 TC 35 998 -14.00 96.00 1 10 0 0
1961 SI WA 06:00:00 TS -14.00 96.00 1289 1289 O_____P__OP___ jtwc_sh SH201961 -14.00 96.00 10 -1 -14.00 96.00 998 -14.00 96.00 TC 35 998 -14.00 95.99 1 12 0 0
1961 SI WA 07:00:00 TS -14.00 96.00 998 bom 1289 1289 P_____O__PP___ SH201961 -14.00 96.00 11 -1 -14.00 96.00 998 -14.00 96.00 TC 35 998 -14.00 95.99 1 13 0 0
1961 SI WA 09:00:00 TS -14.00 96.00 1289 1289 P_____P__PP___ SH201961 -14.00 96.00 15 -1 -14.00 96.00 998 -14.00 96.00 TC 35 998 -14.00 95.99 1 16 0 0
1961 SI WA 10:00:00 TS -14.00 96.00 998 bom 1289 1289 P_____O__PP___ SH201961 -14.00 96.00 16 -1 -14.00 96.00 998 -14.00 96.00 TC 35 998 -14.00 95.99 1 17 0 0
1961 SI WA 12:00:00 TS -14.00 96.00 1289 1289 O_____P__PP___ jtwc_sh SH201961 -14.00 96.00 20 -1 -14.00 96.00 998 -14.00 96.00 TC 35 998 -14.00 95.98 1 20 0 0
1961 SI WA 15:00:00 TS -14.00 96.00 1289 1289 P_____P__PP___ SH201961 -14.00 95.99 22 -1 -14.00 96.00 998 -14.00 96.00 TC 35 998 -14.00 95.99 1 23 0 0
1961 SI WA 16:00:00 TS -14.00 96.00 998 bom 1289 1289 P_____O__PO___ SH201961 -14.00 95.99 23 -1 -14.00 96.00 998 -14.00 96.00 TC 35 998 -14.00 96.00 1 25 0 0
1961 SI WA 18:00:00 TS -14.00 96.00 1289 1289 O_____P__OP___ jtwc_sh SH201961 -14.00 96.00 25 -1 -14.00 96.00 998 -14.00 96.00 TC 35 998 -14.01 96.01 1 22 0 0
1961 SI WA 19:00:00 TS -14.00 96.00 998 bom 1289 1289 P_____O__PP___ SH201961 -14.00 96.01 23 -1 -14.00 96.00 998 -14.00 95.99 TC 35 998 -14.01 96.01 1 21 0 0
1961 SI WA 21:00:00 TS -14.00 96.01 1289 1289 P_____P__PP___ SH201961 -14.00 96.04 20 -1 -14.00 96.00 998 -14.01 95.97 TC 35 998 -14.01 96.03 1 18 0 0
1961 SI WA 22:00:00 TS -14.00 96.02 998 bom 1289 1280 P_____O__PP___ SH201961 -14.00 96.05 18 -1 -14.00 96.00 998 -14.01 95.97 TC 35 998 -14.01 96.04 1 17 1 88
1961 SI WA 1961-02-24 00:00:00 TS -14.00 96.05 1280 1280 O_____P__OP___ jtwc_sh SH201961 -14.00 96.10 15 -1 -14.00 95.98 998 -14.00 96.00 TC 35 998 -14.02 96.08 1 14 1 87
1961 SI WA 01:00:00 TS -14.00 96.08 998 bom 1280 1272 P_____O__PP___ SH201961 -14.00 96.12 14 -1 -14.00 96.00 998 -13.99 96.04 TC 35 997 -14.01 96.10 1 13 2 87
1961 SI WA 03:00:00 TS -14.00 96.16 1272 1272 P_____P__PP___ SH201961 -14.01 96.18 12 -1 -14.01 96.11 997 -13.96 96.17 TC 35 997 -14.01 96.16 1 11 3 85
1961 SI WA 04:00:00 TS -13.99 96.21 997 bom 1272 1264 P_____O__PO___ SH201961 -14.01 96.21 11 -1 -14.00 96.20 997 -13.94 96.24 TC 35 997 -14.00 96.20 1 10 4 79
1961 SI WA 06:00:00 TS -13.96 96.34 1264 1248 O_____P__OP___ jtwc_sh SH201961 -14.00 96.30 10 -1 -13.93 96.39 997 -13.90 96.40 TC 35 997 -13.98 96.29 1 10 4 76
1961 SI WA 07:00:00 TS -13.95 96.40 997 bom 1248 1240 P_____O__PP___ SH201961 -13.99 96.35 10 -1 -13.90 96.50 997 -13.89 96.47 TC 35 997 -13.96 96.35 1 11 4 79
1961 SI WA 09:00:00 TS -13.92 96.55 1240 1231 P_____P__PP___ SH201961 -13.96 96.48 12 -1 -13.90 96.71 997 -13.87 96.60 TC 35 997 -13.93 96.47 1 12 4 81
1961 SI WA 10:00:00 TS -13.91 96.62 997 bom 1231 1215 P_____O__PP___ SH201961 -13.94 96.55 13 -1 -13.90 96.80 997 -13.86 96.67 TC 35 997 -13.92 96.54 1 12 4 78
1961 SI WA 12:00:00 TS -13.88 96.75 1215 1191 O_____P__PP___ jtwc_sh SH201961 -13.90 96.70 15 -1 -13.87 96.88 997 -13.85 96.80 TC 35 997 -13.88 96.68 1 13 4 76
1961 SI WA 15:00:00 TS -13.83 96.95 1191 1191 P_____P__PP___ SH201961 -13.85 96.94 15 -1 -13.81 96.95 997 -13.83 97.00 TC 35 997 -13.82 96.92 1 14 4 77
1961 SI WA 16:00:00 TS -13.82 97.02 997 bom 1191 1175 P_____O__PO___ SH201961 -13.83 97.03 15 -1 -13.80 97.00 997 -13.82 97.07 TC 35 997 -13.80 97.00 1 15 5 81
1961 SI WA 18:00:00 TS -13.79 97.19 1175 1166 O_____P__OP___ jtwc_sh SH201961 -13.80 97.20 15 -1 -13.81 97.20 997 -13.80 97.20 TC 35 997 -13.76 97.16 1 14 5 81
1961 SI WA 19:00:00 TS -13.78 97.28 997 bom 1166 1151 P_____O__PP___ SH201961 -13.78 97.29 14 -1 -13.80 97.30 997 -13.79 97.26 TC 35 997 -13.75 97.24 1 13 5 76
1961 SI WA 21:00:00 TS -13.74 97.43 1151 1143 P_____P__PP___ SH201961 -13.75 97.46 12 -1 -13.73 97.44 997 -13.75 97.38 TC 35 997 -13.71 97.41 1 12 5 75
1961 SI WA 22:00:00 TS -13.72 97.51 997 bom 1143 1127 P_____O__PP___ SH201961 -13.73 97.54 11 -1 -13.70 97.50 997 -13.74 97.45 TC 35 997 -13.69 97.50 1 12 5 78
1961 SI WA 1961-02-25 00:00:00 TS -13.69 97.66 1127 1127 O_____P__OP___ jtwc_sh SH201961 -13.70 97.70 10 -1 -13.70 97.63 997 -13.70 97.60 TC 35 997 -13.66 97.67 1 11 5 80
1961 SI WA 01:00:00 TS -13.68 97.74 997 bom 1127 1103 P_____O__PP___ SH201961 -13.68 97.77 10 -1 -13.70 97.70 997 -13.68 97.69 TC 35 997 -13.64 97.76 1 11 5 77
1961 SI WA 03:00:00 TS -13.64 97.91 1103 1095 P_____P__PP___ SH201961 -13.65 97.91 10 -1 -13.63 97.89 997 -13.65 97.90 TC 35 997 -13.61 97.92 1 10 5 76
1961 SI WA 04:00:00 TS -13.62 97.99 997 bom 1095 1088 P_____O__PO___ SH201961 -13.63 97.97 10 -1 -13.60 98.00 997 -13.63 98.00 TC 35 997 -13.60 98.00 1 10 5 80
1961 SI WA 06:00:00 TS -13.60 98.15 1088 1080 O_____P__OP___ jtwc_sh SH201961 -13.60 98.10 10 -1 -13.60 98.20 997 -13.60 98.20 TC 35 997 -13.58 98.14 1 10 5 81
1961 SI WA 07:00:00 TS -13.58 98.23 997 bom 1080 1057 P_____O__PP___ SH201961 -13.58 98.17 10 -1 -13.60 98.30 997 -13.58 98.28 TC 35 996 -13.57 98.21 1 11 5 77
1961 SI WA 09:00:00 TS -13.55 98.38 1057 1057 P_____P__PP___ SH201961 -13.54 98.30 12 -1 -13.53 98.51 997 -13.55 98.42 TC 35 996 -13.56 98.35 1 12 4 75
1961 SI WA 10:00:00 TS -13.53 98.45 997 bom 1057 1041 P_____O__PP___ SH201961 -13.53 98.37 13 -1 -13.50 98.60 997 -13.53 98.48 TC 35 996 -13.55 98.41 1 12 4 78
1961 SI WA 12:00:00 TS -13.51 98.57 1041 1034 O_____P__PP___ jtwc_sh SH201961 -13.50 98.50 15 -1 -13.49 98.69 996 -13.50 98.59 TC 35 996 -13.54 98.54 1 13 3 83
1961 SI WA 15:00:00 TS -13.49 98.73 1034 1026 P_____P__PP___ SH201961 -13.50 98.70 15 -1 -13.51 98.76 996 -13.45 98.74 TC 35 996 -13.51 98.74 1 14 3 85
1961 SI WA 16:00:00 TS -13.49 98.78 996 bom 1026 1019 P_____O__PO___ SH201961 -13.50 98.77 15 -1 -13.50 98.80 996 -13.43 98.79 TC 35 996 -13.50 98.80 1 15 4 79
1961 SI WA 18:00:00 TS -13.46 98.91 1019 1003 O_____P__OP___ jtwc_sh SH201961 -13.50 98.90 15 -1 -13.43 98.93 996 -13.40 98.90 TC 35 996 -13.47 98.94 1 15 4 77
1961 SI WA 19:00:00 TS -13.44 98.98 996 bom 1003 996 P_____O__PP___ SH201961 -13.49 98.97 15 -1 -13.40 99.00 996 -13.38 98.96 TC 35 996 -13.45 99.01 1 15 4 78
1961 SI WA 21:00:00 TS -13.42 99.12 996 988 P_____P__PP___ SH201961 -13.46 99.10 15 -1 -13.40 99.13 996 -13.35 99.10 TC 35 996 -13.42 99.15 1 15 4 78
1961 SI WA 22:00:00 TS -13.40 99.18 996 bom 988 981 P_____O__PP___ SH201961 -13.44 99.17 15 -1 -13.40 99.20 996 -13.33 99.16 TC 35 996 -13.40 99.22 1 15 4 73
1961 SI WA 1961-02-26 00:00:00 TS -13.36 99.32 981 966 O_____P__OP___ jtwc_sh SH201961 -13.40 99.30 15 -1 -13.33 99.33 996 -13.30 99.30 TC 35 996 -13.36 99.35 1 15 4 72
1961 SI WA 01:00:00 TS -13.34 99.38 996 bom 966 959 P_____O__PP___ SH201961 -13.38 99.37 15 -1 -13.30 99.40 996 -13.28 99.37 TC 35 996 -13.35 99.41 1 15 4 77
1961 SI WA 03:00:00 TS -13.31 99.52 959 951 P_____P__PP___ SH201961 -13.35 99.51 15 -1 -13.30 99.53 996 -13.25 99.50 TC 35 996 -13.31 99.54 1 15 4 78
1961 SI WA 04:00:00 TS -13.30 99.58 996 bom 951 944 P_____O__PO___ SH201961 -13.33 99.57 15 -1 -13.30 99.60 996 -13.23 99.57 TC 35 996 -13.30 99.60 1 15 4 75
1961 SI WA 06:00:00 TS -13.26 99.71 944 929 O_____P__OP___ jtwc_sh SH201961 -13.30 99.70 15 -1 -13.23 99.73 996 -13.20 99.70 TC 35 996 -13.28 99.70 1 15 4 73
1961 SI WA 07:00:00 TS -13.25 99.76 996 bom 929 922 P_____O__PP___ SH201961 -13.28 99.76 15 -1 -13.20 99.80 996 -13.19 99.75 TC 35 995 -13.28 99.74 1 16 3 75
1961 SI WA 09:00:00 TS -13.22 99.87 922 922 P_____P__PP___ SH201961 -13.24 99.86 17 -1 -13.19 99.94 996 -13.17 99.84 TC 36 995 -13.26 99.83 1 17 3 78
1961 SI WA 10:00:00 TS -13.21 99.91 996 bom 922 915 P_____O__PP___ SH201961 -13.23 99.91 18 -1 -13.20 100.00 996 -13.16 99.88 TC 36 995 -13.26 99.88 1 17 3 81
1961 SI WA 12:00:00 TS -13.20 100.00 915 908 O_____P__PP___ jtwc_sh SH201961 -13.20 100.00 20 -1 -13.21 100.07 995 -13.15 99.96 TC 37 995 -13.24 99.97 1 18 3 85
1961 SI WA 15:00:00 TS -13.19 100.13 908 902 P_____P__PP___ SH201961 -13.21 100.13 20 -1 -13.22 100.16 995 -13.13 100.10 TC 38 995 -13.21 100.14 1 19 3 86
1961 SI WA 16:00:00 TS -13.19 100.18 995 bom 902 895 P_____O__PO___ SH201961 -13.21 100.18 20 -1 -13.20 100.20 995 -13.12 100.16 TC 39 995 -13.20 100.20 1 20 4 79
1961 SI WA 18:00:00 TS -13.16 100.31 895 880 O_____P__OP___ jtwc_sh SH201961 -13.20 100.30 20 -1 -13.13 100.32 995 -13.10 100.30 TC 40 995 -13.17 100.34 1 20 4 76
1961 SI WA 19:00:00 TS -13.14 100.40 995 bom 880 867 P_____O__PP___ SH201961 -13.18 100.38 20 -1 -13.10 100.40 995 -13.09 100.39 TC 40 995 -13.15 100.42 1 21 5 77
1961 SI WA 21:00:00 TS -13.10 100.59 867 860 P_____P__PP___ SH201961 -13.12 100.58 22 -1 -13.10 100.59 995 -13.06 100.59 TC 40 995 -13.10 100.59 1 22 6 78
1961 SI WA 22:00:00 TS -13.08 100.69 995 bom 860 839 P_____O__PP___ SH201961 -13.08 100.68 23 -1 -13.10 100.70 995 -13.04 100.69 TC 40 995 -13.08 100.68 1 22 6 74
1961 SI WA 1961-02-27 00:00:00 TS -13.01 100.89 839 833 O_____P__OP___ jtwc_sh SH201961 -13.00 100.90 25 -1 -13.04 100.90 995 -13.00 100.90 TC 40 995 -13.03 100.87 1 23 6 72
1961 SI WA 01:00:00 TS -12.98 100.99 995 bom 833 811 P_____O__PP___ SH201961 -12.97 100.99 25 -1 -13.00 101.00 995 -12.97 101.00 TC 40 994 -13.00 100.98 1 23 6 71
1961 SI WA 03:00:00 TS -12.92 101.19 811 805 P_____P__PP___ SH201961 -12.90 101.18 25 -1 -12.93 101.20 994 -12.91 101.19 TC 40 994 -12.93 101.19 1 24 6 71
1961 SI WA 04:00:00 TS -12.88 101.29 994 bom 805 784 P_____O__PO___ SH201961 -12.87 101.28 25 -1 -12.90 101.30 994 -12.88 101.29 TC 40 994 -12.90 101.30 1 25 6 71
1961 SI WA 06:00:00 TS -12.81 101.50 784 779 O_____P__OP___ jtwc_sh SH201961 -12.80 101.50 25 -1 -12.83 101.49 994 -12.80 101.50 TC 40 994 -12.83 101.53 1 25 7 72
1961 SI WA 07:00:00 TS -12.78 101.62 994 bom 779 753 P_____O__PP___ SH201961 -12.77 101.62 25 -1 -12.80 101.60 994 -12.76 101.62 TC 40 993 -12.79 101.65 1 26 8 74
1961 SI WA 09:00:00 TS -12.71 101.88 753 748 P_____P__PP___ SH201961 -12.71 101.89 27 -1 -12.74 101.86 993 -12.69 101.86 TC 41 993 -12.70 101.91 1 27 8 75
1961 SI WA 10:00:00 TS -12.67 102.02 993 bom 748 723 P_____O__PP___ SH201961 -12.67 102.03 28 -1 -12.70 102.00 993 -12.65 101.99 TC 41 993 -12.66 102.04 1 27 8 73
1961 SI WA 12:00:00 TS -12.59 102.28 723 684 O_____P__PP___ jtwc_sh SH201961 -12.60 102.30 30 -1 -12.60 102.27 992 -12.57 102.26 TC 42 992 -12.57 102.29 1 28 8 70
1961 SI WA 15:00:00 TS -12.45 102.67 684 680 P_____P__PP___ SH201961 -12.45 102.66 30 -1 -12.45 102.67 992 -12.44 102.68 TC 43 991 -12.44 102.68 1 29 8 69
1961 SI WA 16:00:00 TS -12.40 102.79 992 bom 680 661 P_____O__PO___ SH201961 -12.40 102.77 30 -1 -12.40 102.80 992 -12.39 102.82 TC 44 991 -12.40 102.80 1 30 8 70
1961 SI WA 18:00:00 TS -12.31 103.04 661 657 O_____P__OP___ jtwc_sh SH201961 -12.30 103.00 30 -1 -12.34 103.07 991 -12.30 103.10 TC 45 991 -12.32 103.05 1 28 8 71
1961 SI WA 19:00:00 TS -12.27 103.17 991 bom 651 630 P_____O__PP___ SH201961 -12.26 103.12 29 -1 -12.30 103.20 991 -12.24 103.25 TC 45 990 -12.28 103.17 1 27 8 70
1961 SI WA 21:00:00 TS -12.17 103.43 630 615 P_____P__PP___ SH201961 -12.18 103.36 27 -1 -12.16 103.47 991 -12.13 103.54 TC 45 990 -12.20 103.40 1 25 8 69
1961 SI WA 22:00:00 TS -12.13 103.55 991 bom 615 598 P_____O__PP___ SH201961 -12.15 103.47 26 -1 -12.10 103.60 991 -12.08 103.68 TC 45 990 -12.16 103.52 1 25 7 73
1961 SI WA 1961-02-28 00:00:00 TS -12.06 103.78 598 583 O_____P__OP___ jtwc_sh SH201961 -12.10 103.70 25 -1 -12.02 103.89 990 -12.00 103.90 TC 45 990 -12.10 103.73 1 23 7 75
1961 SI WA 01:00:00 TS -12.04 103.89 990 bom 583 578 P_____O__PP___ SH201961 -12.07 103.81 24 -1 -12.00 104.00 990 -11.98 103.98 TC 45 990 -12.07 103.83 1 22 5 79
1961 SI WA 03:00:00 TS -12.01 104.05 578 573 P_____P__PP___ SH201961 -12.03 104.03 22 -1 -11.99 104.08 990 -11.97 104.10 TC 45 991 -12.02 104.02 1 20 5 81
1961 SI WA 04:00:00 TS -12.00 104.12 991 bom 573 564 P_____O__PO___ SH201961 -12.02 104.13 21 -1 -12.00 104.10 991 -11.98 104.14 TC 45 991 -12.00 104.10 1 20 4 85
1961 SI WA 06:00:00 TS -12.00 104.26 564 564 O_____P__OP___ jtwc_sh SH201961 -12.00 104.30 20 -1 -12.00 104.24 991 -12.00 104.20 TC 45 992 -11.98 104.25 1 21 4 87
1961 SI WA 07:00:00 TS -11.99 104.32 992 bom 564 560 P_____O__PP___ SH201961 -11.99 104.37 21 -1 -12.00 104.30 992 -12.01 104.23 TC -11.97 104.31 1 22 3 90
1961 SI WA 09:00:00 TS -12.00 104.41 560 560 P_____P__PP___ SH201961 -11.99 104.48 25 -1 -12.00 104.37 992 -12.03 104.29 TC -11.97 104.43 1 24 3 92
1961 SI WA 10:00:00 TS -12.00 104.45 993 bom 560 555 P_____O__PP___ SH201961 -11.99 104.52 26 -1 -12.00 104.40 993 -12.03 104.32 TC -11.97 104.47 1 25 2 94
1961 SI WA 12:00:00 TS -12.00 104.53 555 551 O_____P__PP___ jtwc_sh SH201961 -12.00 104.60 30 -1 -12.00 104.49 993 -12.04 104.39 TC -11.98 104.56 1 26 2 93
1961 SI WA 15:00:00 TS -12.01 104.65 551 547 P_____P__PP___ SH201961 -12.00 104.72 30 -1 -12.00 104.65 994 -12.05 104.48 TC -12.00 104.67 1 29 2 92
1961 SI WA 16:00:00 TS -12.01 104.68 995 bom 547 544 P_____O__PO___ SH201961 -12.00 104.75 30 -1 -12.00 104.70 995 -12.05 104.52 TC -12.00 104.70 1 30 2 90
1961 SI WA 18:00:00 TS -12.01 104.75 544 544 O_____P__PP___ jtwc_sh SH201961 -12.00 104.80 30 -1 -12.00 104.79 995 -12.05 104.58 TC -12.00 104.78 1 29 2 89
1961 SI WA 21:00:00 TS -12.01 104.84 544 540 P_____P__PP___ SH201961 -12.00 104.86 27 -1 -12.00 104.91 996 -12.04 104.69 TC -12.00 104.87 1 27 2 89
1961 SI WA 1961-03-01 00:00:00 TS -12.01 104.90 540 540 O_____P__PP___ jtwc_sh SH201961 -12.00 104.90 25 -1 -12.00 104.99 997 -12.03 104.79 TC -12.00 104.94 1 26 1 88
1961 SI WA 01:00:00 TS -12.00 104.92 998 bom 540 537 P_____O__PP___ SH201961 -12.00 104.92 25 -1 -12.00 105.00 998 -12.02 104.83 TC -12.00 104.96 1 26 1 87
1961 SI WA 03:00:00 TS -12.00 104.96 537 537 P_____P__PP___ SH201961 -12.00 104.96 25 -1 -12.00 105.00 998 -12.02 104.90 TC -12.00 104.99 1 25 1 86
1961 SI WA 04:00:00 TS -12.00 104.98 998 bom 537 537 P_____O__PO___ SH201961 -12.00 104.97 25 -1 -12.00 105.00 998 -12.01 104.93 TC -12.00 105.00 1 25 1 87
1961 SI WA 06:00:00 TS -12.00 105.00 537 537 O_____P__OP___ jtwc_sh SH201961 -12.00 105.00 25 -1 -12.00 105.00 998 -12.00 105.00 TC 30 999 -12.00 105.02 1 24 1 0
1961 SI WA 07:00:00 TS -12.00 105.01 999 bom 537 537 P_____O___P___ SH201961 -12.00 105.01 24 -1 -12.00 105.00 999 TC -12.00 105.02 1 23 0 0
1961 SI WA 09:00:00 TS -12.00 105.01 537 537 P_____P___P___ SH201961 -12.00 105.01 22 -1 -12.00 105.00 999 TC -12.00 105.02 1 22 0 0
1961 SI WA 10:00:00 TS -12.00 105.01 999 bom 537 537 P_____O___P___ SH201961 -12.00 105.01 21 -1 -12.00 105.00 999 TC -12.00 105.02 1 22 0 0
1961 SI WA 12:00:00 TS -12.00 105.01 537 537 O_____P___P___ jtwc_sh SH201961 -12.00 105.00 20 -1 -12.00 105.00 999 TC -12.00 105.02 1 21 0 0
1961 SI WA 15:00:00 NR -12.00 105.00 537 537 ______P___P___ SH201961 -1 -12.00 105.00 999 TC -12.00 105.00 1 20 0 0
1961 SI WA 16:00:00 NR -12.00 105.00 999 bom 537 537 ______O___O___ SH201961 -1 -12.00 105.00 999 TC -12.00 105.00 1 20 0 0
1961 SI WA 18:00:00 NR -12.00 105.00 537 537 ______P_______ -1 -12.00 105.00 999 TC 1 0 0
1961 SI WA 21:00:00 NR -12.00 105.00 537 537 ______P_______ -1 -12.00 105.00 999 TC 1 0 0
1961 SI WA 22:00:00 NR -12.00 105.00 999 bom 537 ______O_______ -1 -12.00 105.00 999 TC 1 0 0